Time;durP1;ratioP1;P1;durP2;ratioP2;P2;SDS_P1;SDS_P2;PMS_P1;PMS_P2;Temp;Humidity;BMP_temperature;BMP_pressure;BME280_temperature;BME280_humidity;BME280_pressure;Samples;Min_cycle;Max_cycle;Signal;HPM_P1;HPM_P2
2023/04/02 00:01:01;;;;;;;9.07;8.00;;;6.10;99.90;;;;;;5057989;28;20040;-61
2023/04/02 00:03:42;;;;;;;10.00;7.55;;;6.10;99.90;;;;;;5054653;28;20490;-61
2023/04/02 00:06:32;;;;;;;15.52;8.10;;;6.10;99.90;;;;;;5058976;28;20490;-60
2023/04/02 00:09:01;;;;;;;10.23;7.05;;;6.00;99.90;;;;;;5050245;28;20055;-61
2023/04/02 00:11:40;;;;;;;12.35;8.35;;;6.00;99.90;;;;;;5059018;28;20063;-61
2023/04/02 00:14:17;;;;;;;14.48;8.98;;;6.00;99.90;;;;;;5060760;28;20448;-61
2023/04/02 00:16:44;;;;;;;10.23;8.70;;;6.00;99.90;;;;;;5059300;28;20036;-60
2023/04/02 00:19:18;;;;;;;13.20;9.25;;;5.90;99.90;;;;;;5058450;28;20048;-61
2023/04/02 00:21:45;;;;;;;14.70;9.80;;;5.90;99.90;;;;;;5060166;28;20067;-61
2023/04/02 00:24:18;;;;;;;12.15;9.82;;;5.90;99.90;;;;;;5056558;28;20123;-61
2023/04/02 00:26:54;;;;;;;11.10;9.65;;;5.80;99.90;;;;;;5060200;28;20044;-61
2023/04/02 00:29:20;;;;;;;12.93;9.10;;;5.80;99.90;;;;;;5056257;28;20045;-61
2023/04/02 00:31:53;;;;;;;12.35;8.85;;;5.80;99.90;;;;;;5058002;28;20060;-61
2023/04/02 00:34:29;;;;;;;11.45;8.77;;;5.70;99.90;;;;;;5059467;28;20041;-61
2023/04/02 00:36:55;;;;;;;14.00;8.47;;;5.70;99.90;;;;;;5058850;28;20039;-61
2023/04/02 00:39:25;;;;;;;13.57;9.18;;;5.70;99.90;;;;;;5059779;28;20062;-61
2023/04/02 00:42:03;;;;;;;13.13;8.48;;;5.70;99.90;;;;;;5057444;28;20029;-61
2023/04/02 00:44:31;;;;;;;11.15;7.97;;;5.70;99.90;;;;;;5039860;28;20048;-61
2023/04/02 00:47:06;;;;;;;9.05;8.00;;;5.70;99.90;;;;;;5059738;28;20036;-61
2023/04/02 00:49:38;;;;;;;10.02;6.95;;;5.70;99.90;;;;;;5056272;28;20044;-61
2023/04/02 00:52:13;;;;;;;10.93;6.70;;;5.70;99.90;;;;;;5036318;28;20040;-60
2023/04/02 00:54:47;;;;;;;8.73;7.30;;;5.60;99.90;;;;;;5057904;28;20063;-61
2023/04/02 00:57:24;;;;;;;13.10;7.13;;;5.60;99.90;;;;;;5058314;28;20045;-60
2023/04/02 01:00:06;;;;;;;;;;;5.50;99.90;;;;;;5061414;28;20042;-61
2023/04/02 01:02:37;;;;;;;8.43;6.18;;;5.50;99.90;;;;;;5058796;28;19916;-61
2023/04/02 01:05:21;;;;;;;14.13;6.93;;;5.40;99.90;;;;;;5056823;28;20050;-61
2023/04/02 01:07:56;;;;;;;10.63;6.40;;;5.40;99.90;;;;;;5040859;28;20049;-61
2023/04/02 01:10:45;;;;;;;10.65;6.82;;;5.40;99.90;;;;;;5056390;28;20041;-61
2023/04/02 01:13:24;;;;;;;8.85;6.25;;;5.30;99.90;;;;;;5056100;28;20045;-62
2023/04/02 01:16:35;;;;;;;10.18;6.38;;;5.30;99.90;;;;;;5056392;28;20044;-61
2023/04/02 01:19:19;;;;;;;13.20;7.30;;;5.30;99.90;;;;;;5056920;28;20037;-61
2023/04/02 01:22:05;;;;;;;11.30;6.68;;;5.20;99.90;;;;;;5058273;28;20409;-61
2023/04/02 01:24:33;;;;;;;6.57;5.00;;;5.10;99.90;;;;;;5059125;28;20039;-61
2023/04/02 01:27:23;;;;;;;6.80;5.05;;;5.10;99.90;;;;;;5060029;28;20124;-61
2023/04/02 01:29:55;;;;;;;8.48;4.97;;;5.10;99.90;;;;;;5058243;28;20359;-61
2023/04/02 01:32:22;;;;;;;7.68;4.38;;;5.10;99.90;;;;;;5057522;28;20045;-61
2023/04/02 01:34:50;;;;;;;7.82;4.63;;;5.10;99.90;;;;;;5058150;28;20033;-61
2023/04/02 01:37:31;;;;;;;9.55;4.95;;;5.10;99.90;;;;;;5056713;28;20033;-61
2023/04/02 01:40:16;;;;;;;7.40;4.65;;;5.10;99.90;;;;;;5054135;28;20044;-61
2023/04/02 01:43:06;;;;;;;5.82;3.83;;;5.00;99.90;;;;;;5055599;28;20028;-61
2023/04/02 01:45:33;;;;;;;5.70;3.25;;;5.00;99.90;;;;;;5040446;28;20070;-61
2023/04/02 01:48:04;;;;;;;3.47;3.15;;;5.00;99.90;;;;;;5053781;28;20059;-61
2023/04/02 01:50:35;;;;;;;5.13;3.05;;;4.90;99.90;;;;;;5054689;28;20453;-60
2023/04/02 01:53:08;;;;;;;5.47;3.17;;;4.80;99.90;;;;;;5056061;28;20033;-61
2023/04/02 01:55:39;;;;;;;5.43;2.33;;;4.80;99.90;;;;;;5036425;28;20055;-60
2023/04/02 01:58:05;;;;;;;5.72;2.92;;;4.70;99.90;;;;;;5057044;28;20554;-61
2023/04/02 02:00:33;;;;;;;4.60;2.45;;;4.70;99.90;;;;;;5057400;28;20348;-61
2023/04/02 02:03:00;;;;;;;5.55;2.95;;;4.70;99.90;;;;;;5039469;28;20450;-61
2023/04/02 02:05:27;;;;;;;5.00;2.60;;;4.60;99.90;;;;;;5056899;28;20041;-61
2023/04/02 02:07:54;;;;;;;5.88;2.50;;;4.60;99.90;;;;;;5058232;28;20028;-60
2023/04/02 02:10:34;;;;;;;5.35;2.50;;;4.60;99.90;;;;;;5051544;28;20350;-60
2023/04/02 02:13:00;;;;;;;6.20;2.10;;;4.50;99.90;;;;;;5056954;28;20245;-61
2023/04/02 02:15:27;;;;;;;11.50;2.28;;;4.40;99.90;;;;;;5058506;28;20032;-61
2023/04/02 02:18:02;;;;;;;14.13;3.13;;;4.40;99.90;;;;;;5057889;28;20114;-61
2023/04/02 02:20:28;;;;;;;5.18;2.30;;;4.30;99.90;;;;;;5056386;28;20393;-62
2023/04/02 02:22:56;;;;;;;5.07;2.38;;;4.30;99.90;;;;;;5055308;28;20072;-61
2023/04/02 02:25:25;;;;;;;5.38;2.22;;;4.30;99.90;;;;;;5056915;28;20037;-61
2023/04/02 02:28:12;;;;;;;4.55;2.30;;;4.30;99.90;;;;;;5057433;28;20440;-60
2023/04/02 02:30:47;;;;;;;3.92;1.38;;;4.20;99.90;;;;;;5057753;28;20040;-61
2023/04/02 02:33:33;;;;;;;6.03;1.92;;;4.10;99.90;;;;;;5053407;28;20045;-60
2023/04/02 02:36:15;;;;;;;4.55;1.60;;;4.10;99.90;;;;;;5057120;28;20043;-61
2023/04/02 02:38:59;;;;;;;4.68;1.85;;;4.00;99.90;;;;;;5055206;28;20894;-61
2023/04/02 02:41:34;;;;;;;2.67;1.13;;;4.00;99.90;;;;;;5059050;28;20233;-61
2023/04/02 02:44:08;;;;;;;4.45;1.65;;;4.00;99.90;;;;;;5053935;28;20506;-61
2023/04/02 02:46:42;;;;;;;5.97;2.45;;;3.90;99.90;;;;;;5038959;28;20111;-60
2023/04/02 02:49:15;;;;;;;6.75;1.85;;;3.80;99.90;;;;;;5057435;28;20485;-61
2023/04/02 02:51:56;;;;;;;6.80;2.20;;;3.80;99.90;;;;;;5059756;28;20036;-61
2023/04/02 02:54:22;;;;;;;4.10;1.63;;;3.80;99.90;;;;;;5060643;28;20068;-60
2023/04/02 02:56:56;;;;;;;2.95;1.52;;;3.70;99.90;;;;;;5060857;28;20067;-61
2023/04/02 02:59:22;;;;;;;3.05;1.98;;;3.60;99.90;;;;;;5060226;28;20402;-61
2023/04/02 03:01:49;;;;;;;7.63;1.63;;;3.60;99.90;;;;;;5061745;28;20032;-61
2023/04/02 03:04:21;;;;;;;5.38;1.42;;;3.60;99.90;;;;;;5059061;28;20107;-61
2023/04/02 03:06:52;;;;;;;6.82;1.98;;;3.50;99.90;;;;;;5061449;28;20076;-61
2023/04/02 03:09:40;;;;;;;3.97;1.67;;;3.50;99.90;;;;;;5058938;28;20044;-61
2023/04/02 03:12:34;;;;;;;6.60;2.50;;;3.50;99.90;;;;;;5059841;28;20387;-61
2023/04/02 03:15:02;;;;;;;4.45;1.85;;;3.40;99.90;;;;;;5057089;28;20037;-61
2023/04/02 03:17:37;;;;;;;3.65;1.85;;;3.40;99.90;;;;;;5059497;28;20498;-60
2023/04/02 03:20:23;;;;;;;7.35;2.03;;;3.40;99.90;;;;;;5056165;28;20235;-61
2023/04/02 03:22:59;;;;;;;4.60;1.52;;;3.40;99.90;;;;;;5062059;28;20044;-61
2023/04/02 03:25:44;;;;;;;4.18;2.08;;;3.30;99.90;;;;;;5058555;28;20040;-60
2023/04/02 03:28:19;;;;;;;7.80;2.85;;;3.20;99.90;;;;;;5060357;28;20040;-61
2023/04/02 03:31:15;;;;;;;6.32;1.90;;;3.20;99.90;;;;;;5056746;28;20098;-61
2023/04/02 03:33:50;;;;;;;4.80;2.95;;;3.10;99.90;;;;;;5061528;28;20059;-60
2023/04/02 03:36:30;;;;;;;5.50;2.35;;;3.10;99.90;;;;;;5058281;28;20578;-60
2023/04/02 03:39:03;;;;;;;7.95;2.40;;;3.00;99.90;;;;;;5056788;28;20037;-61
2023/04/02 03:41:47;;;;;;;5.13;2.90;;;3.00;99.90;;;;;;5059930;28;20037;-60
2023/04/02 03:44:34;;;;;;;5.88;2.78;;;2.90;99.90;;;;;;5059438;28;20134;-61
2023/04/02 03:47:37;;;;;;;5.68;3.33;;;2.90;99.90;;;;;;5045222;28;20413;-60
2023/04/02 03:50:20;;;;;;;5.53;3.50;;;2.90;99.90;;;;;;5054458;28;20332;-61
2023/04/02 03:52:47;;;;;;;5.93;3.65;;;2.80;99.90;;;;;;5060422;28;20036;-61
2023/04/02 03:55:22;;;;;;;6.68;3.22;;;2.80;99.90;;;;;;5060305;28;20157;-61
2023/04/02 03:58:00;;;;;;;6.50;4.40;;;2.80;99.90;;;;;;5059860;28;20076;-61
2023/04/02 04:00:32;;;;;;;7.55;4.35;;;2.80;99.90;;;;;;5058499;28;20127;-61
2023/04/02 04:03:08;;;;;;;4.75;4.35;;;2.80;99.90;;;;;;5059753;28;20108;-61
2023/04/02 04:05:38;;;;;;;4.20;3.80;;;2.80;99.90;;;;;;5058656;28;20444;-61
2023/04/02 04:08:07;;;;;;;10.95;4.95;;;2.70;99.90;;;;;;5041443;28;20047;-61
2023/04/02 04:10:34;;;;;;;9.75;4.15;;;2.70;99.90;;;;;;5062549;28;20047;-61
2023/04/02 04:13:10;;;;;;;7.35;4.65;;;2.70;99.90;;;;;;5059088;28;20505;-63
2023/04/02 04:15:44;;;;;;;6.60;4.63;;;2.80;99.90;;;;;;5059777;28;20025;-61
2023/04/02 04:18:55;;;;;;;6.50;3.67;;;2.70;99.90;;;;;;5057381;28;20045;-60
2023/04/02 04:21:36;;;;;;;12.80;4.63;;;2.70;99.90;;;;;;5044032;28;20053;-61
2023/04/02 04:24:13;;;;;;;5.97;3.75;;;2.70;99.90;;;;;;5059094;28;20068;-61
2023/04/02 04:26:53;;;;;;;9.18;4.22;;;2.70;99.90;;;;;;5059723;28;20040;-61
2023/04/02 04:29:45;;;;;;;5.57;4.18;;;2.70;99.90;;;;;;5056331;28;20072;-61
2023/04/02 04:32:17;;;;;;;5.63;4.22;;;2.70;99.90;;;;;;5058844;28;20138;-62
2023/04/02 04:34:50;;;;;;;11.48;5.95;;;2.80;99.90;;;;;;5039201;28;20087;-61
2023/04/02 04:37:34;;;;;;;7.78;4.60;;;2.80;99.90;;;;;;5057728;28;20049;-61
2023/04/02 04:40:18;;;;;;;11.63;4.10;;;2.70;99.90;;;;;;5056774;28;20032;-61
2023/04/02 04:42:47;;;;;;;6.90;4.70;;;2.70;99.90;;;;;;5056439;28;20048;-61
2023/04/02 04:45:25;;;;;;;8.70;5.70;;;2.70;99.90;;;;;;5058875;28;20048;-61
2023/04/02 04:47:56;;;;;;;8.38;6.50;;;2.70;99.90;;;;;;5056520;28;20049;-60
2023/04/02 04:50:37;;;;;;;8.65;5.47;;;2.70;99.90;;;;;;5057196;28;20036;-61
2023/04/02 04:53:16;;;;;;;7.85;7.07;;;2.80;99.90;;;;;;5058218;28;20033;-61
2023/04/02 04:55:47;;;;;;;7.03;6.32;;;2.70;99.90;;;;;;5057956;28;20044;-61
2023/04/02 04:58:34;;;;;;;6.90;6.05;;;2.70;99.90;;;;;;5057309;28;20044;-60
2023/04/02 05:01:08;;;;;;;9.13;6.75;;;2.70;99.90;;;;;;5059126;28;20450;-61
2023/04/02 05:03:54;;;;;;;8.50;5.47;;;2.70;99.90;;;;;;5060056;28;20041;-61
2023/04/02 05:06:38;;;;;;;8.20;5.57;;;2.70;99.90;;;;;;5058944;28;20036;-61
2023/04/02 05:09:35;;;;;;;8.98;5.70;;;2.70;99.90;;;;;;5037126;28;20044;-61
2023/04/02 05:12:09;;;;;;;5.93;5.28;;;2.70;99.90;;;;;;5030367;28;20095;-61
2023/04/02 05:15:07;;;;;;;9.40;6.00;;;2.70;99.90;;;;;;5057849;28;20043;-61
2023/04/02 05:17:55;;;;;;;10.38;4.35;;;2.70;99.90;;;;;;5036318;28;20055;-61
2023/04/02 05:20:41;;;;;;;5.32;4.72;;;2.70;99.90;;;;;;5056385;28;20029;-61
2023/04/02 05:23:21;;;;;;;6.85;4.70;;;2.60;99.90;;;;;;5057680;28;20111;-61
2023/04/02 05:26:02;;;;;;;9.80;4.45;;;2.60;99.90;;;;;;5040684;28;20040;-61
2023/04/02 05:28:41;;;;;;;9.80;4.93;;;2.60;99.90;;;;;;5058142;28;20056;-60
2023/04/02 05:31:18;;;;;;;7.30;4.15;;;2.60;99.90;;;;;;5060353;28;20048;-61
2023/04/02 05:33:48;;;;;;;5.93;3.25;;;2.60;99.90;;;;;;5055423;28;20055;-61
2023/04/02 05:36:28;;;;;;;11.85;2.67;;;2.60;99.90;;;;;;5053349;28;20037;-61
2023/04/02 05:38:55;;;;;;;3.30;1.80;;;2.60;99.90;;;;;;5056282;28;20113;-61
2023/04/02 05:41:35;;;;;;;5.90;2.50;;;2.60;99.90;;;;;;5057594;28;20052;-61
2023/04/02 05:44:24;;;;;;;4.70;1.55;;;2.60;99.90;;;;;;5058547;28;20476;-61
2023/04/02 05:46:56;;;;;;;6.28;2.30;;;2.50;99.90;;;;;;5060058;28;20040;-61
2023/04/02 05:49:30;;;;;;;4.80;1.52;;;2.60;99.90;;;;;;5056394;28;20110;-61
2023/04/02 05:52:01;;;;;;;5.03;1.50;;;2.60;99.90;;;;;;5040704;28;20036;-61
2023/04/02 05:54:43;;;;;;;3.75;1.40;;;2.60;99.90;;;;;;5037892;28;20533;-60
2023/04/02 05:57:14;;;;;;;7.57;1.60;;;2.50;99.90;;;;;;5056972;28;20043;-60
2023/04/02 05:59:46;;;;;;;8.23;1.73;;;2.60;99.90;;;;;;5056041;28;20049;-61
2023/04/02 06:02:32;;;;;;;7.22;2.00;;;2.60;99.90;;;;;;5058253;28;20044;-61
2023/04/02 06:05:04;;;;;;;5.00;1.58;;;2.60;99.90;;;;;;5056125;28;20033;-61
2023/04/02 06:07:49;;;;;;;4.82;2.15;;;2.70;99.90;;;;;;5058302;28;20508;-61
2023/04/02 06:10:23;;;;;;;4.07;1.33;;;2.70;99.90;;;;;;5054507;28;20048;-61
2023/04/02 06:12:54;;;;;;;4.90;1.80;;;2.70;99.90;;;;;;5057960;28;20090;-61
2023/04/02 06:15:22;;;;;;;9.00;1.92;;;2.80;99.90;;;;;;5055968;28;20033;-61
2023/04/02 06:18:06;;;;;;;6.18;1.70;;;2.80;99.90;;;;;;5055399;28;20470;-61
2023/04/02 06:20:32;;;;;;;5.13;1.70;;;2.80;99.90;;;;;;5053657;28;20134;-61
2023/04/02 06:23:14;;;;;;;7.15;2.72;;;2.80;99.90;;;;;;5056335;28;20107;-61
2023/04/02 06:25:48;;;;;;;5.97;1.73;;;2.80;99.90;;;;;;5060280;28;20123;-61
2023/04/02 06:28:23;;;;;;;5.45;1.35;;;2.80;99.90;;;;;;5057759;28;20037;-61
2023/04/02 06:30:53;;;;;;;3.78;1.33;;;2.80;99.90;;;;;;5055779;28;20048;-61
2023/04/02 06:33:19;;;;;;;5.80;1.35;;;2.80;99.90;;;;;;5055174;28;20040;-61
2023/04/02 06:35:46;;;;;;;4.80;2.13;;;2.90;99.90;;;;;;5050780;28;20043;-61
2023/04/02 06:38:19;;;;;;;3.88;1.10;;;2.90;99.90;;;;;;5053785;28;20131;-60
2023/04/02 06:40:53;;;;;;;5.45;1.73;;;2.90;99.90;;;;;;5054842;28;20044;-62
2023/04/02 06:43:37;;;;;;;3.83;1.55;;;3.10;99.90;;;;;;5036294;28;20047;-59
2023/04/02 06:46:26;;;;;;;4.80;1.33;;;3.20;99.90;;;;;;5055767;28;20108;-63
2023/04/02 06:48:59;;;;;;;4.72;1.30;;;3.20;99.90;;;;;;5057122;28;20040;-62
2023/04/02 06:51:27;;;;;;;8.05;2.17;;;3.20;99.90;;;;;;5054446;28;20032;-62
2023/04/02 06:53:54;;;;;;;9.98;2.22;;;3.20;99.90;;;;;;5037289;28;20393;-61
2023/04/02 06:56:37;;;;;;;6.03;1.85;;;3.20;99.90;;;;;;5059739;28;20126;-61
2023/04/02 06:59:06;;;;;;;4.53;1.40;;;3.30;99.90;;;;;;5055004;28;20110;-62
2023/04/02 07:01:37;;;;;;;6.72;1.98;;;3.20;99.90;;;;;;5054472;28;20093;-62
2023/04/02 07:04:03;;;;;;;5.30;1.27;;;3.30;99.90;;;;;;5039671;28;20040;-61
2023/04/02 07:06:28;;;;;;;4.63;1.75;;;3.30;99.90;;;;;;5058215;28;20044;-61
2023/04/02 07:08:54;;;;;;;9.37;2.93;;;3.40;99.90;;;;;;5057311;28;20040;-61
2023/04/02 07:11:21;;;;;;;5.95;1.83;;;3.40;99.90;;;;;;5056555;28;20036;-62
2023/04/02 07:13:49;;;;;;;4.15;1.83;;;3.50;99.90;;;;;;5058239;28;20064;-62
2023/04/02 07:16:18;;;;;;;7.80;2.15;;;3.60;99.90;;;;;;5057290;28;20617;-61
2023/04/02 07:18:44;;;;;;;5.57;2.13;;;3.70;99.90;;;;;;5055921;28;20070;-62
2023/04/02 07:21:10;;;;;;;;;;;3.70;99.90;;;;;;5055860;28;20068;-62
2023/04/02 07:23:36;;;;;;;5.20;1.85;;;3.80;99.90;;;;;;5056394;28;19979;-62
2023/04/02 07:26:03;;;;;;;7.63;3.00;;;3.90;99.90;;;;;;5055787;28;20119;-62
2023/04/02 07:28:29;;;;;;;4.68;1.63;;;3.90;99.90;;;;;;5055129;28;20143;-62
2023/04/02 07:30:55;;;;;;;2.17;1.08;;;4.00;99.90;;;;;;5056345;28;20108;-62
2023/04/02 07:33:26;;;;;;;6.03;1.40;;;4.00;99.90;;;;;;5056709;28;20553;-62
2023/04/02 07:35:53;;;;;;;4.65;1.83;;;4.10;99.90;;;;;;5057786;28;20093;-62
2023/04/02 07:38:19;;;;;;;8.20;1.33;;;4.20;99.90;;;;;;5056353;28;20087;-62
2023/04/02 07:40:45;;;;;;;4.85;1.13;;;4.10;99.90;;;;;;5058551;28;20140;-62
2023/04/02 07:43:11;;;;;;;3.63;1.33;;;4.10;99.90;;;;;;5060012;28;20036;-62
2023/04/02 07:45:36;;;;;;;2.80;1.92;;;4.20;99.90;;;;;;5061514;28;20120;-62
2023/04/02 07:48:10;;;;;;;3.30;1.50;;;4.20;99.90;;;;;;5059330;28;20086;-62
2023/04/02 07:50:36;;;;;;;8.63;1.67;;;4.30;99.90;;;;;;5060065;28;20032;-62
2023/04/02 07:53:02;;;;;;;5.07;1.05;;;4.40;99.90;;;;;;5059725;28;20041;-62
2023/04/02 07:55:28;;;;;;;5.60;1.37;;;4.40;99.90;;;;;;5061116;28;20479;-62
2023/04/02 07:57:56;;;;;;;8.27;1.60;;;4.40;99.90;;;;;;5055577;28;20033;-62
2023/04/02 08:00:23;;;;;;;8.50;1.67;;;4.40;99.90;;;;;;5060848;28;20043;-62
2023/04/02 08:02:49;;;;;;;7.30;1.90;;;4.50;99.90;;;;;;5062046;28;20065;-62
2023/04/02 08:05:16;;;;;;;2.08;1.25;;;4.50;99.90;;;;;;5061984;28;20095;-62
2023/04/02 08:07:43;;;;;;;5.18;1.85;;;4.50;99.90;;;;;;5039712;28;20327;-62
2023/04/02 08:10:10;;;;;;;3.72;2.17;;;4.50;99.90;;;;;;5059165;28;20177;-62
2023/04/02 08:12:36;;;;;;;7.88;1.70;;;4.60;99.90;;;;;;5061405;28;20108;-64
2023/04/02 08:15:04;;;;;;;4.38;1.73;;;4.60;99.90;;;;;;5059205;28;20188;-62
2023/04/02 08:17:30;;;;;;;7.20;2.40;;;4.60;99.90;;;;;;5055850;28;20036;-62
2023/04/02 08:19:59;;;;;;;5.35;1.40;;;4.60;99.90;;;;;;5041012;28;20063;-62
2023/04/02 08:22:26;;;;;;;4.13;1.73;;;4.70;99.90;;;;;;5061008;28;20045;-61
2023/04/02 08:24:52;;;;;;;3.58;1.65;;;4.90;99.90;;;;;;5059981;28;20069;-62
2023/04/02 08:27:17;;;;;;;5.17;1.87;;;5.00;99.90;;;;;;5059180;28;20056;-61
2023/04/02 08:29:43;;;;;;;3.28;1.67;;;5.30;99.90;;;;;;5058432;28;20322;-62
2023/04/02 08:32:14;;;;;;;4.97;1.23;;;5.60;99.90;;;;;;5060084;28;20049;-62
2023/04/02 08:34:40;;;;;;;6.68;1.23;;;5.80;99.90;;;;;;5056383;28;20037;-62
2023/04/02 08:37:06;;;;;;;3.88;1.27;;;6.10;99.90;;;;;;5060507;28;20521;-62
2023/04/02 08:39:34;;;;;;;10.93;1.40;;;6.20;99.90;;;;;;5057129;28;20032;-62
2023/04/02 08:42:02;;;;;;;4.55;1.65;;;6.30;99.90;;;;;;5058686;28;20080;-62
2023/04/02 08:44:50;;;;;;;7.82;2.15;;;6.50;99.90;;;;;;5058703;28;20395;-62
2023/04/02 08:47:19;;;;;;;5.32;1.90;;;6.60;99.90;;;;;;5059737;28;20090;-61
2023/04/02 08:49:53;;;;;;;6.75;1.10;;;6.70;99.90;;;;;;5059775;28;20510;-62
2023/04/02 08:52:31;;;;;;;8.00;1.83;;;6.90;99.90;;;;;;5058494;28;20068;-62
2023/04/02 08:54:59;;;;;;;2.85;0.75;;;7.10;99.90;;;;;;5058536;28;20037;-62
2023/04/02 08:57:48;;;;;;;6.22;1.10;;;7.30;99.90;;;;;;5058168;28;20132;-61
2023/04/02 09:00:14;;;;;;;6.30;1.30;;;7.50;99.90;;;;;;5038969;28;20079;-62
2023/04/02 09:03:01;;;;;;;9.20;1.48;;;7.60;99.90;;;;;;5057938;28;20036;-58
2023/04/02 09:05:30;;;;;;;1.85;0.98;;;7.60;99.90;;;;;;5058303;28;20041;-60
2023/04/02 09:08:00;;;;;;;15.60;2.58;;;7.70;99.90;;;;;;5053615;28;20163;-58
2023/04/02 09:10:39;;;;;;;5.43;1.95;;;7.80;99.90;;;;;;5057275;28;20040;-62
2023/04/02 09:13:18;;;;;;;4.68;1.35;;;8.00;99.90;;;;;;5053796;28;20048;-62
2023/04/02 09:15:45;;;;;;;3.33;1.00;;;8.20;99.90;;;;;;5057704;28;20032;-62
2023/04/02 09:18:14;;;;;;;6.03;0.75;;;8.20;99.90;;;;;;5058438;28;20045;-61
2023/04/02 09:20:40;;;;;;;7.47;1.38;;;8.10;99.90;;;;;;5052387;28;20041;-61
2023/04/02 09:23:21;;;;;;;5.65;1.10;;;8.10;99.90;;;;;;5058796;28;20040;-60
2023/04/02 09:25:50;;;;;;;4.15;1.15;;;8.20;99.90;;;;;;5056476;28;20074;-61
2023/04/02 09:28:19;;;;;;;3.28;1.17;;;8.30;99.90;;;;;;5056500;28;20064;-60
2023/04/02 09:30:56;;;;;;;3.08;1.20;;;8.40;99.90;;;;;;5055787;28;20075;-61
2023/04/02 09:33:41;;;;;;;6.00;1.73;;;8.30;99.90;;;;;;5049999;28;20119;-61
2023/04/02 09:36:16;;;;;;;4.82;0.80;;;8.40;99.90;;;;;;5050002;28;20521;-62
2023/04/02 09:39:00;;;;;;;3.10;0.85;;;8.40;99.90;;;;;;5049282;28;20502;-62
2023/04/02 09:41:28;;;;;;;4.93;0.95;;;8.30;99.90;;;;;;5049015;28;20032;-61
2023/04/02 09:44:15;;;;;;;5.20;0.90;;;8.40;99.90;;;;;;5049383;28;20094;-59
2023/04/02 09:46:51;;;;;;;4.63;1.13;;;8.40;99.90;;;;;;5050271;28;20043;-61
2023/04/02 09:49:21;;;;;;;23.27;1.55;;;8.60;99.90;;;;;;5030758;28;20106;-62
2023/04/02 09:52:10;;;;;;;4.88;1.05;;;8.70;99.90;;;;;;5049231;28;20132;-60
2023/04/02 09:54:42;;;;;;;4.53;1.10;;;8.90;99.90;;;;;;5049613;28;20045;-58
2023/04/02 09:57:26;;;;;;;6.25;1.05;;;9.00;99.90;;;;;;5049782;28;20063;-60
2023/04/02 10:00:18;;;;;;;3.47;0.70;;;9.20;99.90;;;;;;5031081;28;20076;-63
2023/04/02 10:03:03;;;;;;;1.80;0.52;;;9.30;99.90;;;;;;5048931;28;20124;-62
2023/04/02 10:05:30;;;;;;;4.93;1.00;;;9.40;99.90;;;;;;5049283;28;20589;-62
2023/04/02 10:08:25;;;;;;;4.35;0.93;;;9.40;99.90;;;;;;5047968;28;20040;-62
2023/04/02 10:10:54;;;;;;;2.67;0.90;;;9.50;99.90;;;;;;5048538;28;20094;-62
2023/04/02 10:13:40;;;;;;;3.70;0.85;;;9.50;99.90;;;;;;5049680;28;20107;-62
2023/04/02 10:16:15;;;;;;;3.63;1.10;;;9.60;99.90;;;;;;5049093;28;20037;-62
2023/04/02 10:18:50;;;;;;;2.25;0.60;;;9.70;99.90;;;;;;5068632;28;20043;-62
2023/04/02 10:21:25;;;;;;;4.85;0.77;;;9.60;99.90;;;;;;5069607;28;20036;-63
2023/04/02 10:23:51;;;;;;;1.58;0.60;;;9.60;99.90;;;;;;5033062;28;20521;-62
2023/04/02 10:26:43;;;;;;;3.10;0.70;;;9.70;99.90;;;;;;5049365;28;20033;-62
2023/04/02 10:29:42;;;;;;;3.10;1.38;;;9.70;99.90;;;;;;5006834;28;20398;-62
2023/04/02 10:32:36;;;;;;;3.75;1.05;;;9.60;99.90;;;;;;5049345;28;20040;-62
2023/04/02 10:35:10;;;;;;;4.22;0.98;;;9.60;99.90;;;;;;5011660;28;20048;-62
2023/04/02 10:37:45;;;;;;;5.70;0.90;;;9.50;99.90;;;;;;5031361;28;20128;-62
2023/04/02 10:40:28;;;;;;;2.78;0.70;;;9.40;99.90;;;;;;5048595;28;20037;-62
2023/04/02 10:43:21;;;;;;;3.30;1.20;;;9.40;99.90;;;;;;5048953;28;20094;-62
2023/04/02 10:46:10;;;;;;;2.67;0.90;;;9.30;99.90;;;;;;5049515;28;20049;-62
2023/04/02 10:48:54;;;;;;;6.03;0.73;;;9.30;99.90;;;;;;5030265;28;20087;-62
2023/04/02 10:51:36;;;;;;;4.00;0.65;;;9.20;99.90;;;;;;5048534;28;20041;-61
2023/04/02 10:54:26;;;;;;;3.08;0.80;;;9.20;99.90;;;;;;5049307;28;20150;-62
2023/04/02 10:56:53;;;;;;;4.13;1.02;;;9.40;99.90;;;;;;5049059;28;20048;-62
2023/04/02 10:59:26;;;;;;;3.83;0.73;;;9.50;99.90;;;;;;5047697;28;20496;-62
2023/04/02 11:01:55;;;;;;;2.22;0.50;;;9.70;99.90;;;;;;5030849;28;20514;-62
2023/04/02 11:04:39;;;;;;;4.90;1.02;;;9.80;99.90;;;;;;5049074;28;20048;-62
2023/04/02 11:07:13;;;;;;;6.65;0.80;;;9.80;99.90;;;;;;5048957;28;20056;-62
2023/04/02 11:09:42;;;;;;;3.90;0.80;;;9.80;99.90;;;;;;5048274;28;20060;-62
2023/04/02 11:12:24;;;;;;;1.20;0.47;;;10.00;99.90;;;;;;5049639;28;20037;-62
2023/04/02 11:14:50;;;;;;;3.10;0.95;;;10.10;99.90;;;;;;5032215;28;20041;-62
2023/04/02 11:17:19;;;;;;;7.38;1.13;;;10.10;99.90;;;;;;5052264;28;20033;-62
2023/04/02 11:19:45;;;;;;;3.60;0.85;;;10.20;99.90;;;;;;5051607;28;20036;-62
2023/04/02 11:22:24;;;;;;;3.25;0.45;;;10.20;99.40;;;;;;5053037;28;20191;-61
2023/04/02 11:24:53;;;;;;;7.43;0.82;;;10.20;99.90;;;;;;5052490;28;20048;-64
2023/04/02 11:27:25;;;;;;;2.47;0.60;;;10.30;99.90;;;;;;5052324;28;20048;-64
2023/04/02 11:30:02;;;;;;;6.72;1.60;;;10.50;99.90;;;;;;5051584;28;20657;-63
2023/04/02 11:32:33;;;;;;;3.15;0.60;;;10.50;99.90;;;;;;5052866;28;20049;-64
2023/04/02 11:35:03;;;;;;;2.72;0.82;;;10.60;99.60;;;;;;5052121;28;20523;-64
2023/04/02 11:37:43;;;;;;;2.88;0.65;;;10.70;99.90;;;;;;5051613;28;20045;-64
2023/04/02 11:40:14;;;;;;;3.72;0.43;;;10.70;99.50;;;;;;5051372;28;20046;-64
2023/04/02 11:42:48;;;;;;;2.78;0.90;;;10.70;99.00;;;;;;5052012;28;20120;-64
2023/04/02 11:45:20;;;;;;;2.92;0.93;;;10.80;99.50;;;;;;5052202;28;20425;-64
2023/04/02 11:48:00;;;;;;;3.58;0.65;;;10.90;99.80;;;;;;5051478;28;20456;-63
2023/04/02 11:50:38;;;;;;;6.28;0.82;;;11.00;99.20;;;;;;5050598;28;20120;-64
2023/04/02 11:53:09;;;;;;;1.70;0.30;;;11.10;99.30;;;;;;5051262;28;20501;-64
2023/04/02 11:55:40;;;;;;;1.75;0.50;;;11.20;98.30;;;;;;5050749;28;20041;-64
2023/04/02 11:58:29;;;;;;;1.70;0.60;;;11.30;98.90;;;;;;5051018;28;20573;-64
2023/04/02 12:01:19;;;;;;;4.53;0.70;;;11.40;99.20;;;;;;5051254;28;20124;-64
2023/04/02 12:04:09;;;;;;;1.25;0.40;;;11.30;97.80;;;;;;5051797;28;20041;-64
2023/04/02 12:07:04;;;;;;;2.28;0.52;;;11.30;98.20;;;;;;5052399;28;20037;-64
2023/04/02 12:09:51;;;;;;;3.00;0.70;;;11.30;98.30;;;;;;4978562;28;20636;-64
2023/04/02 12:12:23;;;;;;;0.65;0.25;;;11.30;98.50;;;;;;5052294;28;20037;-64
2023/04/02 12:14:51;;;;;;;1.83;0.55;;;11.30;97.00;;;;;;5051206;28;20056;-64
2023/04/02 12:17:17;;;;;;;2.33;0.88;;;11.20;97.20;;;;;;5051515;28;20569;-64
2023/04/02 12:19:52;;;;;;;1.73;0.40;;;11.20;97.00;;;;;;5050272;28;20104;-64
2023/04/02 12:22:24;;;;;;;0.93;0.40;;;11.10;98.10;;;;;;5051603;28;20072;-64
2023/04/02 12:24:55;;;;;;;2.53;0.50;;;11.10;97.50;;;;;;5032284;28;20033;-64
2023/04/02 12:27:26;;;;;;;1.33;0.65;;;11.10;97.00;;;;;;5050389;28;20095;-64
2023/04/02 12:29:53;;;;;;;6.85;0.77;;;11.10;98.10;;;;;;5050141;28;20065;-64
2023/04/02 12:32:26;;;;;;;1.55;0.40;;;11.20;98.00;;;;;;5050153;28;20041;-64
2023/04/02 12:34:53;;;;;;;5.38;0.93;;;11.20;97.90;;;;;;5051301;28;20383;-64
2023/04/02 12:37:22;;;;;;;1.13;0.32;;;11.20;97.90;;;;;;5051351;28;20045;-64
2023/04/02 12:39:57;;;;;;;1.95;0.63;;;11.40;98.30;;;;;;5050202;28;20098;-64
2023/04/02 12:42:34;;;;;;;3.25;0.52;;;11.50;98.40;;;;;;5033328;28;20102;-64
2023/04/02 12:45:00;;;;;;;;;;;11.60;98.40;;;;;;5033417;28;20041;-64
2023/04/02 12:47:26;;;;;;;1.90;0.50;;;11.50;97.50;;;;;;5050900;28;19917;-64
2023/04/02 12:49:53;;;;;;;;;;;11.60;97.90;;;;;;5032629;28;20064;-64
2023/04/02 12:52:21;;;;;;;2.08;0.73;;;11.70;97.90;;;;;;5051201;28;19916;-61
2023/04/02 12:54:58;;;;;;;2.28;0.38;;;11.80;98.20;;;;;;5050500;28;20025;-61
2023/04/02 12:57:29;;;;;;;2.60;0.30;;;11.90;97.50;;;;;;5050785;28;20195;-62
2023/04/02 13:00:02;;;;;;;1.90;0.40;;;11.80;97.50;;;;;;5050327;28;20379;-61
2023/04/02 13:02:31;;;;;;;2.22;0.70;;;11.80;98.20;;;;;;5050635;28;20378;-61
2023/04/02 13:05:00;;;;;;;1.42;0.40;;;11.80;96.90;;;;;;5050351;28;20417;-64
2023/04/02 13:07:29;;;;;;;0.88;0.73;;;11.80;96.30;;;;;;5049944;28;20414;-64
2023/04/02 13:10:00;;;;;;;0.80;0.40;;;11.70;96.00;;;;;;5050333;28;20044;-64
2023/04/02 13:12:26;;;;;;;3.75;0.47;;;11.60;95.70;;;;;;5050601;28;20055;-64
2023/04/02 13:14:55;;;;;;;2.30;0.60;;;11.60;96.50;;;;;;5050085;28;20044;-64
2023/04/02 13:17:48;;;;;;;3.30;0.63;;;11.70;96.10;;;;;;5050169;28;20040;-64
2023/04/02 13:20:34;;;;;;;2.70;0.60;;;11.70;96.60;;;;;;5049503;28;20076;-64
2023/04/02 13:23:21;;;;;;;3.00;1.03;;;11.80;95.80;;;;;;5050498;28;20065;-64
2023/04/02 13:25:46;;;;;;;1.42;0.32;;;11.90;96.70;;;;;;5050210;28;20047;-63
2023/04/02 13:28:16;;;;;;;16.52;1.40;;;12.00;96.80;;;;;;5031160;28;20049;-63
2023/04/02 13:30:42;;;;;;;19.15;0.60;;;12.00;96.30;;;;;;5049154;28;20041;-61
2023/04/02 13:33:07;;;;;;;104.47;4.78;;;12.00;95.90;;;;;;5050667;28;20086;-61
2023/04/02 13:35:33;;;;;;;71.47;4.95;;;12.00;96.00;;;;;;5049448;28;20490;-64